createdAt,value
2019-01-31T00:02:33.438Z,14.23
2019-01-31T00:05:45.892Z,16.27
2019-01-31T00:08:48.730Z,11.13
2019-01-31T00:11:57.911Z,13.73
2019-01-31T00:14:43.163Z,22.47
2019-01-31T00:17:51.552Z,12.57
2019-01-31T00:21:07.575Z,8.30
2019-01-31T00:24:20.348Z,9.50
2019-01-31T00:27:26.664Z,12.10
2019-01-31T00:30:38.431Z,12.07
2019-01-31T00:33:52.230Z,15.10
2019-01-31T00:36:58.949Z,12.50
2019-01-31T00:39:57.998Z,15.90
2019-01-31T00:43:06.570Z,9.10
2019-01-31T00:46:19.911Z,13.17
2019-01-31T00:49:13.863Z,9.20
2019-01-31T00:52:13.146Z,9.80
2019-01-31T00:55:02.786Z,7.33
2019-01-31T00:57:43.704Z,12.83
2019-01-31T01:00:44.433Z,8.93
2019-01-31T01:04:01.271Z,10.50
2019-01-31T01:07:23.676Z,11.63
2019-01-31T01:10:20.507Z,8.40
2019-01-31T01:13:29.814Z,17.23
2019-01-31T01:16:20.623Z,11.20
2019-01-31T01:19:37.323Z,13.47
2019-01-31T01:22:35.490Z,14.70
2019-01-31T01:25:33.522Z,17.70
2019-01-31T01:28:50.179Z,10.97
2019-01-31T01:31:52.972Z,10.77
2019-01-31T01:35:34.042Z,10.60
2019-01-31T01:38:46.058Z,16.47
2019-01-31T01:41:55.411Z,10.90
2019-01-31T01:45:08.543Z,11.67
2019-01-31T01:48:21.584Z,11.57
2019-01-31T01:51:04.216Z,14.07
2019-01-31T01:54:08.207Z,12.47
2019-01-31T01:56:54.315Z,11.60
2019-01-31T01:59:50.302Z,10.60
2019-01-31T02:03:05.991Z,8.33
2019-01-31T02:06:22.798Z,8.83
2019-01-31T02:09:15.576Z,9.67
2019-01-31T02:12:32.160Z,11.70
2019-01-31T02:15:49.071Z,12.10
2019-01-31T02:18:40.063Z,7.03
2019-01-31T02:21:59.868Z,7.80
2019-01-31T02:24:35.641Z,14.27
2019-01-31T02:27:55.386Z,13.13
2019-01-31T02:30:49.678Z,10.68
2019-01-31T02:33:54.919Z,12.77
2019-01-31T02:37:02.380Z,15.07
2019-01-31T02:40:00.418Z,8.67
2019-01-31T02:43:03.733Z,16.80
2019-01-31T02:46:29.473Z,12.13
2019-01-31T02:49:42.639Z,8.50
2019-01-31T02:53:05.388Z,10.90
2019-01-31T02:56:16.739Z,10.80
2019-01-31T02:59:09.079Z,9.87
2019-01-31T03:02:04.567Z,12.10
2019-01-31T03:05:16.285Z,10.63
2019-01-31T03:08:34.641Z,8.20
2019-01-31T03:11:53.533Z,8.47
2019-01-31T03:14:32.095Z,13.57
2019-01-31T03:18:01.839Z,12.40
2019-01-31T03:20:58.575Z,12.03
2019-01-31T03:23:58.302Z,9.97
2019-01-31T03:26:40.468Z,12.67
2019-01-31T03:29:39.983Z,10.87
2019-01-31T03:32:36.623Z,8.10
2019-01-31T03:35:59.396Z,11.10
2019-01-31T03:38:44.940Z,9.47
2019-01-31T03:42:16.731Z,11.33
2019-01-31T03:45:04.318Z,19.00
2019-01-31T03:48:12.371Z,11.50
2019-01-31T03:51:24.429Z,15.60
2019-01-31T03:54:29.358Z,16.60
2019-01-31T03:57:20.180Z,12.10
2019-01-31T04:00:17.707Z,12.30
2019-01-31T04:03:05.491Z,13.13
2019-01-31T04:05:58.250Z,10.47
2019-01-31T04:08:28.402Z,9.50
2019-01-31T04:10:58.337Z,9.73
2019-01-31T04:13:27.702Z,10.83
2019-01-31T04:15:56.988Z,13.03
2019-01-31T04:18:26.395Z,8.63
2019-01-31T04:20:55.654Z,11.47
2019-01-31T04:23:24.922Z,11.23
2019-01-31T04:25:54.187Z,12.37
2019-01-31T04:28:23.488Z,15.07
2019-01-31T04:30:52.754Z,10.20
2019-01-31T04:33:22.071Z,16.27
2019-01-31T04:35:51.373Z,11.37
2019-01-31T04:38:20.937Z,15.33
2019-01-31T04:40:50.234Z,9.30
2019-01-31T04:43:19.500Z,10.50
2019-01-31T04:45:48.779Z,9.53
2019-01-31T04:48:18.785Z,13.33
2019-01-31T04:50:48.074Z,19.10
2019-01-31T04:53:17.505Z,12.90
2019-01-31T04:55:46.853Z,12.13
2019-01-31T04:58:16.226Z,12.50
2019-01-31T05:00:45.563Z,10.90
2019-01-31T05:03:14.859Z,12.83
2019-01-31T05:05:44.181Z,8.77
2019-01-31T05:08:13.430Z,12.27
2019-01-31T05:10:43.540Z,13.90
2019-01-31T05:13:12.912Z,11.00
2019-01-31T05:15:42.174Z,11.73
2019-01-31T05:18:11.477Z,9.80
2019-01-31T05:20:40.734Z,9.70
2019-01-31T05:23:10.208Z,15.93
2019-01-31T05:25:39.502Z,12.63
2019-01-31T05:28:08.827Z,10.93
2019-01-31T05:30:38.146Z,25.83
2019-01-31T05:33:07.578Z,26.23
2019-01-31T05:35:36.879Z,14.80
2019-01-31T05:38:06.182Z,11.77
2019-01-31T05:40:35.439Z,13.83
2019-01-31T05:43:04.900Z,13.70
2019-01-31T05:45:34.200Z,22.27
2019-01-31T05:48:03.553Z,15.43
2019-01-31T05:50:32.853Z,12.67
2019-01-31T05:53:02.110Z,16.43
2019-01-31T05:55:31.653Z,15.20
2019-01-31T05:58:01.176Z,19.87
2019-01-31T06:00:35.252Z,13.63
2019-01-31T06:03:04.566Z,19.23
2019-01-31T06:05:33.846Z,28.10
2019-01-31T06:08:03.144Z,28.00
2019-01-31T06:10:33.696Z,26.53
2019-01-31T06:13:03.068Z,26.80
2019-01-31T06:15:32.364Z,13.60
2019-01-31T06:18:02.044Z,16.20
2019-01-31T06:20:31.356Z,18.67
2019-01-31T06:23:00.613Z,22.87
2019-01-31T06:25:29.921Z,17.50
2019-01-31T06:27:59.182Z,15.73
2019-01-31T06:30:28.872Z,20.70
2019-01-31T06:32:58.555Z,19.07
2019-01-31T06:35:27.903Z,23.33
2019-01-31T06:37:57.191Z,21.43
2019-01-31T06:40:26.476Z,17.80
2019-01-31T06:42:55.752Z,13.03
2019-01-31T06:45:25.095Z,28.27
2019-01-31T06:47:54.363Z,17.47
2019-01-31T06:50:23.916Z,12.23
2019-01-31T06:52:53.222Z,20.67
2019-01-31T06:55:22.501Z,16.20
2019-01-31T06:57:51.791Z,20.87
2019-01-31T07:00:22.587Z,18.23
2019-01-31T07:02:52.801Z,15.80
2019-01-31T07:05:22.080Z,21.90
2019-01-31T07:07:51.455Z,18.73
2019-01-31T07:10:23.405Z,19.27
2019-01-31T07:12:52.889Z,21.33
2019-01-31T07:15:22.214Z,17.67
2019-01-31T07:17:51.494Z,18.37
2019-01-31T07:20:20.793Z,22.30
2019-01-31T07:22:50.130Z,18.83
2019-01-31T07:25:24.528Z,18.63
2019-01-31T07:27:54.235Z,18.83
2019-01-31T07:30:26.714Z,18.90
2019-01-31T07:32:55.733Z,22.97
2019-01-31T07:35:24.986Z,14.33
2019-01-31T07:37:54.276Z,18.93
2019-01-31T07:40:23.751Z,19.17
2019-01-31T07:42:53.431Z,19.57
2019-01-31T07:45:30.431Z,18.57
2019-01-31T07:47:59.978Z,15.03
2019-01-31T07:50:29.493Z,17.67
2019-01-31T07:52:59.216Z,19.43
2019-01-31T07:55:28.572Z,20.47
2019-01-31T07:57:58.544Z,22.20
2019-01-31T08:00:27.833Z,20.93
2019-01-31T08:02:57.092Z,19.60
2019-01-31T08:05:26.582Z,19.37
2019-01-31T08:07:56.539Z,17.70
2019-01-31T08:10:31.464Z,18.70
2019-01-31T08:13:00.751Z,16.03
2019-01-31T08:15:30.684Z,21.83
2019-01-31T08:18:00.052Z,19.03
2019-01-31T08:20:29.339Z,16.10
2019-01-31T08:23:00.188Z,15.37
2019-01-31T08:25:30.002Z,20.00
2019-01-31T08:27:59.523Z,20.57
2019-01-31T08:30:31.644Z,20.30
2019-01-31T08:33:01.215Z,15.97
2019-01-31T08:35:30.534Z,18.63
2019-01-31T08:37:59.806Z,18.53
2019-01-31T08:40:29.094Z,16.37
2019-01-31T08:42:58.401Z,17.37
2019-01-31T08:45:27.842Z,19.37
2019-01-31T08:47:57.194Z,18.17
2019-01-31T08:50:27.688Z,20.77
2019-01-31T08:52:57.247Z,26.17
2019-01-31T08:55:26.952Z,17.00
2019-01-31T08:57:56.283Z,18.80
2019-01-31T09:00:27.754Z,23.27
2019-01-31T09:02:57.430Z,22.23
2019-01-31T09:05:26.694Z,18.60
2019-01-31T09:07:56.171Z,14.07
2019-01-31T09:10:28.008Z,18.83
2019-01-31T09:12:58.160Z,18.30
2019-01-31T09:15:27.818Z,16.83
2019-01-31T09:17:57.074Z,19.80
2019-01-31T09:20:33.347Z,19.67
2019-01-31T09:23:41.043Z,16.57
2019-01-31T09:26:37.635Z,17.93
2019-01-31T09:29:34.950Z,17.30
2019-01-31T09:32:50.303Z,19.77
2019-01-31T09:35:28.229Z,19.40
2019-01-31T09:38:41.987Z,17.10
2019-01-31T09:41:33.380Z,19.07
2019-01-31T09:44:54.819Z,14.80
2019-01-31T09:48:09.042Z,16.30
2019-01-31T09:51:10.667Z,18.73
2019-01-31T09:54:28.904Z,24.53
2019-01-31T09:57:47.277Z,16.37
2019-01-31T10:00:28.430Z,17.80
2019-01-31T10:03:44.734Z,22.97
2019-01-31T10:06:36.313Z,17.80
2019-01-31T10:09:57.778Z,18.63
2019-01-31T10:13:10.196Z,19.23
2019-01-31T10:16:19.470Z,17.47
2019-01-31T10:19:34.688Z,20.70
2019-01-31T10:22:38.584Z,20.73
2019-01-31T10:25:40.271Z,12.60
2019-01-31T10:28:45.709Z,15.27
2019-01-31T10:31:48.074Z,19.33
2019-01-31T10:34:56.530Z,18.40
2019-01-31T10:37:41.093Z,16.13
2019-01-31T10:40:45.092Z,18.87
2019-01-31T10:43:35.541Z,22.00
2019-01-31T10:46:32.794Z,19.63
2019-01-31T10:49:54.206Z,13.97
2019-01-31T10:53:13.636Z,24.67
2019-01-31T10:56:35.922Z,19.43
2019-01-31T10:59:36.386Z,15.33
2019-01-31T11:02:34.809Z,17.50
2019-01-31T11:05:34.434Z,24.03
2019-01-31T11:08:14.556Z,17.90
2019-01-31T11:11:12.227Z,25.70
2019-01-31T11:14:17.394Z,18.70
2019-01-31T11:17:27.822Z,17.73
2019-01-31T11:20:28.066Z,18.60
2019-01-31T11:23:24.094Z,20.23
2019-01-31T11:26:35.406Z,23.10
2019-01-31T11:29:41.427Z,25.10
2019-01-31T11:32:40.270Z,20.87
2019-01-31T11:35:53.557Z,18.57
2019-01-31T11:38:49.021Z,23.33
2019-01-31T11:41:42.587Z,25.53
2019-01-31T11:44:37.953Z,20.93
2019-01-31T11:47:38.256Z,30.50
2019-01-31T11:50:34.696Z,20.00
2019-01-31T11:53:23.499Z,19.67
2019-01-31T11:56:18.212Z,20.23
2019-01-31T11:59:05.436Z,15.73
2019-01-31T12:01:35.797Z,21.13
2019-01-31T12:04:16.664Z,19.00
2019-01-31T12:06:46.139Z,17.03
2019-01-31T12:09:24.589Z,18.23
2019-01-31T12:11:53.953Z,24.73
2019-01-31T12:14:23.606Z,16.83
2019-01-31T12:16:52.980Z,22.23
2019-01-31T12:19:22.478Z,16.10
2019-01-31T12:21:51.902Z,20.27
2019-01-31T12:24:21.223Z,22.00
2019-01-31T12:26:50.502Z,16.43
2019-01-31T12:29:20.172Z,21.50
2019-01-31T12:31:49.727Z,26.43
2019-01-31T12:34:23.265Z,24.40
2019-01-31T12:36:52.555Z,17.77
2019-01-31T12:39:21.854Z,24.60
2019-01-31T12:41:51.217Z,22.33
2019-01-31T12:44:20.742Z,18.13
2019-01-31T12:46:50.062Z,21.47
2019-01-31T12:49:20.001Z,14.00
2019-01-31T12:51:49.369Z,22.93
2019-01-31T12:54:18.709Z,17.77
2019-01-31T12:56:48.915Z,20.07
2019-01-31T12:59:18.318Z,28.53
2019-01-31T13:01:47.575Z,20.90
2019-01-31T13:04:17.151Z,22.10
2019-01-31T13:06:46.655Z,22.93
2019-01-31T13:09:16.472Z,20.40
2019-01-31T13:11:45.883Z,19.63
2019-01-31T13:14:15.503Z,21.13
2019-01-31T13:16:44.823Z,18.60
2019-01-31T13:19:14.658Z,24.77
2019-01-31T13:21:44.016Z,18.97
2019-01-31T13:24:13.744Z,24.03
2019-01-31T13:26:43.535Z,23.83
2019-01-31T13:29:12.935Z,22.90
2019-01-31T13:31:42.378Z,28.60
2019-01-31T13:34:11.658Z,19.23
2019-01-31T13:36:41.339Z,20.63
2019-01-31T13:39:16.192Z,26.67
2019-01-31T13:41:45.768Z,17.67
2019-01-31T13:44:15.138Z,20.87
2019-01-31T13:46:44.533Z,27.50
2019-01-31T13:49:13.811Z,19.97
2019-01-31T13:51:43.103Z,19.57
2019-01-31T13:54:12.371Z,26.93
2019-01-31T13:56:45.543Z,29.33
2019-01-31T13:59:12.699Z,23.33
2019-01-31T14:01:42.431Z,25.27
2019-01-31T14:04:11.993Z,35.07
2019-01-31T14:06:41.383Z,33.10
2019-01-31T14:09:10.763Z,30.83
2019-01-31T14:11:40.080Z,32.17
2019-01-31T14:14:09.645Z,22.53
2019-01-31T14:16:47.087Z,20.13
2019-01-31T14:19:10.150Z,27.50
2019-01-31T14:21:39.525Z,27.37
2019-01-31T14:24:08.825Z,27.77
2019-01-31T14:26:38.115Z,26.90
2019-01-31T14:29:07.442Z,27.20
2019-01-31T14:31:37.424Z,25.70
2019-01-31T14:34:09.086Z,24.30
2019-01-31T14:36:37.923Z,23.13
2019-01-31T14:39:09.229Z,20.33
2019-01-31T14:41:38.486Z,27.10
2019-01-31T14:44:07.915Z,26.17
2019-01-31T14:46:37.182Z,27.33
2019-01-31T14:49:06.562Z,21.23
2019-01-31T14:51:36.254Z,23.27
2019-01-31T14:54:05.667Z,23.43
2019-01-31T14:56:35.344Z,26.80
2019-01-31T14:59:04.614Z,26.83
2019-01-31T15:01:33.900Z,30.27
2019-01-31T15:04:03.165Z,23.07
2019-01-31T15:06:32.476Z,25.43
2019-01-31T15:09:02.138Z,26.50
2019-01-31T15:11:31.748Z,31.47
2019-01-31T15:14:01.106Z,32.73
2019-01-31T15:16:30.474Z,32.60
2019-01-31T15:18:59.752Z,37.23
2019-01-31T15:21:29.057Z,31.57
2019-01-31T15:23:59.654Z,28.23
2019-01-31T15:26:29.243Z,29.30
2019-01-31T15:28:58.655Z,31.63
2019-01-31T15:31:28.266Z,31.37
2019-01-31T15:33:57.565Z,29.73
2019-01-31T15:36:27.046Z,35.23
2019-01-31T15:38:56.503Z,30.33
2019-01-31T15:41:28.084Z,31.53
2019-01-31T15:43:57.403Z,28.43
2019-01-31T15:46:29.000Z,32.93
2019-01-31T15:48:59.774Z,24.70
2019-01-31T15:51:29.359Z,30.00
2019-01-31T15:54:01.108Z,33.70
2019-01-31T15:56:33.578Z,36.73
2019-01-31T15:59:06.932Z,36.37
2019-01-31T16:01:35.953Z,30.10
2019-01-31T16:04:05.332Z,30.43
2019-01-31T16:06:34.988Z,29.80
2019-01-31T16:09:05.947Z,45.00
2019-01-31T16:11:35.260Z,27.97
2019-01-31T16:14:05.130Z,37.00
2019-01-31T16:16:34.453Z,35.17
2019-01-31T16:19:04.333Z,31.00
2019-01-31T16:21:33.650Z,37.57
2019-01-31T16:24:03.354Z,29.97
2019-01-31T16:26:32.664Z,33.67
2019-01-31T16:29:01.986Z,45.53
2019-01-31T16:31:50.362Z,33.30
2019-01-31T16:34:19.615Z,37.63
2019-01-31T16:36:48.943Z,38.90
2019-01-31T16:39:18.356Z,36.53
2019-01-31T16:41:57.956Z,31.23
2019-01-31T16:44:27.231Z,38.50
2019-01-31T16:46:56.859Z,37.13
2019-01-31T16:49:26.284Z,39.30
2019-01-31T16:51:55.677Z,46.07
2019-01-31T16:54:25.302Z,33.20
2019-01-31T16:56:55.176Z,35.17
2019-01-31T16:59:24.452Z,34.87
2019-01-31T17:01:56.026Z,47.47
2019-01-31T17:04:25.472Z,41.17
2019-01-31T17:06:54.766Z,40.73
2019-01-31T17:09:24.030Z,37.40
2019-01-31T17:11:53.328Z,43.30
2019-01-31T17:14:22.648Z,41.27
2019-01-31T17:16:54.084Z,39.33
2019-01-31T17:19:22.979Z,34.27
2019-01-31T17:21:52.675Z,32.33
2019-01-31T17:24:23.042Z,38.80
2019-01-31T17:26:52.504Z,38.23
2019-01-31T17:29:22.107Z,33.80
2019-01-31T17:31:51.399Z,41.60
2019-01-31T17:34:20.743Z,38.17
2019-01-31T17:36:50.116Z,38.43
2019-01-31T17:39:19.415Z,40.00
2019-01-31T17:41:48.840Z,34.90
2019-01-31T17:44:18.139Z,30.70
2019-01-31T17:46:47.463Z,33.37
2019-01-31T17:49:16.747Z,29.07
2019-01-31T17:51:46.058Z,30.57
2019-01-31T17:54:15.379Z,33.43
2019-01-31T17:56:44.688Z,31.63
2019-01-31T17:59:14.343Z,26.93
2019-01-31T18:01:43.652Z,29.60
2019-01-31T18:04:13.027Z,30.50
2019-01-31T18:06:42.329Z,29.73
2019-01-31T18:09:11.678Z,29.43
2019-01-31T18:11:40.967Z,26.10
2019-01-31T18:14:10.245Z,26.47
2019-01-31T18:16:39.531Z,26.70
2019-01-31T18:19:08.843Z,29.03
2019-01-31T18:21:38.114Z,29.00
2019-01-31T18:24:08.327Z,30.43
2019-01-31T18:26:37.619Z,26.17
2019-01-31T18:29:07.478Z,28.53
2019-01-31T18:31:36.751Z,27.27
2019-01-31T18:34:06.852Z,32.40
2019-01-31T18:36:36.115Z,33.33
2019-01-31T18:39:09.339Z,32.43
2019-01-31T18:41:38.627Z,34.63
2019-01-31T18:44:07.945Z,37.27
2019-01-31T18:46:37.466Z,32.63
2019-01-31T18:49:06.875Z,32.50
2019-01-31T18:51:36.160Z,28.93
2019-01-31T18:54:05.575Z,27.00
2019-01-31T18:56:35.104Z,27.53
2019-01-31T18:59:04.419Z,27.47
2019-01-31T19:01:34.018Z,23.47
2019-01-31T19:04:03.582Z,23.33
2019-01-31T19:06:32.969Z,26.33
2019-01-31T19:09:02.601Z,24.63
2019-01-31T19:11:32.220Z,24.53
2019-01-31T19:14:01.509Z,27.47
2019-01-31T19:16:31.983Z,29.83
2019-01-31T19:19:01.307Z,26.77
2019-01-31T19:21:30.632Z,22.30
2019-01-31T19:23:59.927Z,24.17
2019-01-31T19:26:29.477Z,23.67
2019-01-31T19:28:58.851Z,23.57
2019-01-31T19:31:28.440Z,23.23
2019-01-31T19:33:57.798Z,25.87
2019-01-31T19:36:27.552Z,31.03
2019-01-31T19:38:56.907Z,26.10
2019-01-31T19:41:26.297Z,29.17
2019-01-31T19:43:55.610Z,25.87
2019-01-31T19:46:24.980Z,25.73
2019-01-31T19:48:54.605Z,25.80
2019-01-31T19:51:24.133Z,26.57
2019-01-31T19:53:53.410Z,26.70
2019-01-31T19:56:22.986Z,26.37
2019-01-31T19:58:52.605Z,25.37
2019-01-31T20:01:21.867Z,26.20
2019-01-31T20:03:51.855Z,28.47
2019-01-31T20:06:21.628Z,24.40
2019-01-31T20:08:53.588Z,26.47
2019-01-31T20:11:22.690Z,24.90
2019-01-31T20:13:51.963Z,27.60
2019-01-31T20:16:28.518Z,25.37
2019-01-31T20:18:52.772Z,25.20
2019-01-31T20:21:22.179Z,21.27
2019-01-31T20:23:51.478Z,25.67
2019-01-31T20:26:21.101Z,24.90
2019-01-31T20:28:53.502Z,24.40
2019-01-31T20:31:21.427Z,24.03
2019-01-31T20:33:50.831Z,21.17
2019-01-31T20:36:20.212Z,25.73
2019-01-31T20:38:49.486Z,20.73
2019-01-31T20:41:18.753Z,24.63
2019-01-31T20:43:48.047Z,25.27
2019-01-31T20:46:17.340Z,22.37
2019-01-31T20:48:52.063Z,20.37
2019-01-31T20:51:21.364Z,21.33
2019-01-31T20:53:50.656Z,19.23
2019-01-31T20:56:19.922Z,20.57
2019-01-31T20:58:49.224Z,22.17
2019-01-31T21:01:18.509Z,18.97
2019-01-31T21:03:49.581Z,23.23
2019-01-31T21:06:19.580Z,22.33
2019-01-31T21:08:48.931Z,22.00
2019-01-31T21:11:18.479Z,25.73
2019-01-31T21:13:47.902Z,22.23
2019-01-31T21:16:17.258Z,21.37
2019-01-31T21:18:46.754Z,22.70
2019-01-31T21:21:16.052Z,20.07
2019-01-31T21:23:45.628Z,20.47
2019-01-31T21:26:15.204Z,21.90
2019-01-31T21:28:44.502Z,22.57
2019-01-31T21:31:14.039Z,21.97
2019-01-31T21:33:43.611Z,21.40
2019-01-31T21:36:13.066Z,21.43
2019-01-31T21:38:42.663Z,21.57
2019-01-31T21:41:11.951Z,19.20
2019-01-31T21:43:41.548Z,21.63
2019-01-31T21:46:11.158Z,18.33
2019-01-31T21:48:40.421Z,21.93
2019-01-31T21:51:18.781Z,20.37
2019-01-31T21:53:48.565Z,22.70
2019-01-31T21:56:17.848Z,21.50
2019-01-31T21:58:47.189Z,18.30
2019-01-31T22:01:16.482Z,29.60
2019-01-31T22:03:46.716Z,20.70
2019-01-31T22:06:22.613Z,17.67
2019-01-31T22:08:47.063Z,19.27
2019-01-31T22:11:18.350Z,19.10
2019-01-31T22:13:51.743Z,17.00
2019-01-31T22:16:21.106Z,18.73
2019-01-31T22:18:50.407Z,17.60
2019-01-31T22:21:19.774Z,18.03
2019-01-31T22:23:49.055Z,15.30
2019-01-31T22:26:18.690Z,19.63
2019-01-31T22:28:48.292Z,17.53
2019-01-31T22:31:18.038Z,16.23
2019-01-31T22:33:47.303Z,14.33
2019-01-31T22:36:16.631Z,13.63
2019-01-31T22:38:45.896Z,13.27
2019-01-31T22:41:15.171Z,16.63
2019-01-31T22:43:44.711Z,15.13
2019-01-31T22:46:13.999Z,13.47
2019-01-31T22:48:43.704Z,12.37
2019-01-31T22:51:12.980Z,13.40
2019-01-31T22:53:42.639Z,11.80
2019-01-31T22:56:11.927Z,12.10
2019-01-31T22:58:41.635Z,12.87
2019-01-31T23:01:40.341Z,13.17
2019-01-31T23:04:09.626Z,13.37
2019-01-31T23:06:38.904Z,12.33
2019-01-31T23:09:11.236Z,12.40
2019-01-31T23:11:40.644Z,13.70
2019-01-31T23:14:10.412Z,12.33
2019-01-31T23:16:40.103Z,13.13
2019-01-31T23:19:09.596Z,14.83
2019-01-31T23:21:38.865Z,14.83
2019-01-31T23:24:08.744Z,11.93
2019-01-31T23:26:38.015Z,11.17
2019-01-31T23:29:07.648Z,10.60
2019-01-31T23:31:36.931Z,10.80
2019-01-31T23:34:06.971Z,10.73
2019-01-31T23:36:36.573Z,12.37
2019-01-31T23:39:10.546Z,12.47
2019-01-31T23:41:39.894Z,12.57
2019-01-31T23:44:09.475Z,11.73
2019-01-31T23:46:38.828Z,9.97
2019-01-31T23:49:09.282Z,10.03
2019-01-31T23:51:38.599Z,10.57
2019-01-31T23:54:08.630Z,10.33
2019-01-31T23:56:37.891Z,8.27
2019-01-31T23:59:07.163Z,8.47
